sensor_id;sensor_type;location;lat;lon;timestamp;pressure;altitude;pressure_sealevel;temperature;humidity
59116;BME280;53564;51.930;4.640;2022-07-30T00:01:19;102021.31;;;19.52;59.72
59116;BME280;53564;51.930;4.640;2022-07-30T00:03:44;102028.72;;;19.66;59.18
59116;BME280;53564;51.930;4.640;2022-07-30T00:06:09;102026.75;;;19.69;59.06
59116;BME280;53564;51.930;4.640;2022-07-30T00:08:35;102025.28;;;19.62;59.21
59116;BME280;53564;51.930;4.640;2022-07-30T00:11:00;102021.66;;;19.63;58.97
59116;BME280;53564;51.930;4.640;2022-07-30T00:13:25;102017.44;;;19.38;60.16
59116;BME280;53564;51.930;4.640;2022-07-30T00:15:50;102020.28;;;18.96;62.86
59116;BME280;53564;51.930;4.640;2022-07-30T00:18:16;102016.75;;;19.35;60.08
59116;BME280;53564;51.930;4.640;2022-07-30T00:20:41;102006.56;;;19.41;59.50
59116;BME280;53564;51.930;4.640;2022-07-30T00:23:06;102007.38;;;19.44;59.25
59116;BME280;53564;51.930;4.640;2022-07-30T00:25:32;101996.91;;;19.37;59.41
59116;BME280;53564;51.930;4.640;2022-07-30T00:27:57;102004.69;;;19.44;59.38
59116;BME280;53564;51.930;4.640;2022-07-30T00:30:23;102000.38;;;19.39;59.78
59116;BME280;53564;51.930;4.640;2022-07-30T00:32:48;102009.25;;;19.41;59.41
59116;BME280;53564;51.930;4.640;2022-07-30T00:35:14;102008.44;;;19.39;59.66
59116;BME280;53564;51.930;4.640;2022-07-30T00:37:39;101990.53;;;19.38;59.25
59116;BME280;53564;51.930;4.640;2022-07-30T00:40:06;102001.47;;;19.35;59.48
59116;BME280;53564;51.930;4.640;2022-07-30T00:42:41;101997.31;;;19.28;59.62
59116;BME280;53564;51.930;4.640;2022-07-30T00:45:07;102004.59;;;19.26;59.82
59116;BME280;53564;51.930;4.640;2022-07-30T00:47:33;102000.66;;;19.33;59.29
59116;BME280;53564;51.930;4.640;2022-07-30T00:49:58;101999.88;;;19.31;59.59
59116;BME280;53564;51.930;4.640;2022-07-30T00:52:24;102000.44;;;19.19;59.82
59116;BME280;53564;51.930;4.640;2022-07-30T00:54:49;102005.00;;;19.17;59.75
59116;BME280;53564;51.930;4.640;2022-07-30T00:57:14;101999.53;;;18.99;60.98
59116;BME280;53564;51.930;4.640;2022-07-30T00:59:39;101996.47;;;19.07;60.22
59116;BME280;53564;51.930;4.640;2022-07-30T01:02:05;102005.41;;;18.87;61.15
59116;BME280;53564;51.930;4.640;2022-07-30T01:04:30;102000.19;;;19.04;60.20
59116;BME280;53564;51.930;4.640;2022-07-30T01:06:55;101996.72;;;19.02;59.93
59116;BME280;53564;51.930;4.640;2022-07-30T01:09:21;102002.50;;;18.72;61.64
59116;BME280;53564;51.930;4.640;2022-07-30T01:11:46;102003.66;;;18.86;61.04
59116;BME280;53564;51.930;4.640;2022-07-30T01:14:12;101992.94;;;18.86;60.76
59116;BME280;53564;51.930;4.640;2022-07-30T01:16:39;102008.25;;;19.04;59.69
59116;BME280;53564;51.930;4.640;2022-07-30T01:19:12;101997.28;;;18.88;59.66
59116;BME280;53564;51.930;4.640;2022-07-30T01:22:17;101995.75;;;19.03;59.87
59116;BME280;53564;51.930;4.640;2022-07-30T01:24:47;102001.81;;;18.88;60.14
59116;BME280;53564;51.930;4.640;2022-07-30T01:27:16;102000.81;;;18.90;60.04
59116;BME280;53564;51.930;4.640;2022-07-30T01:29:43;101994.69;;;18.87;59.93
59116;BME280;53564;51.930;4.640;2022-07-30T01:32:12;101997.38;;;18.87;60.22
59116;BME280;53564;51.930;4.640;2022-07-30T01:34:38;101995.69;;;18.84;60.22
59116;BME280;53564;51.930;4.640;2022-07-30T01:37:07;101961.38;;;18.70;60.28
59116;BME280;53564;51.930;4.640;2022-07-30T01:39:34;101989.84;;;18.74;60.36
59116;BME280;53564;51.930;4.640;2022-07-30T01:42:01;101981.59;;;18.58;61.06
59116;BME280;53564;51.930;4.640;2022-07-30T01:44:30;101987.19;;;18.54;62.14
59116;BME280;53564;51.930;4.640;2022-07-30T01:46:56;101982.59;;;18.56;60.96
59116;BME280;53564;51.930;4.640;2022-07-30T01:49:23;101987.66;;;18.64;60.57
59116;BME280;53564;51.930;4.640;2022-07-30T01:51:50;101988.03;;;18.54;60.80
59116;BME280;53564;51.930;4.640;2022-07-30T01:54:17;101998.44;;;18.62;60.72
59116;BME280;53564;51.930;4.640;2022-07-30T01:56:45;102002.63;;;18.49;61.30
59116;BME280;53564;51.930;4.640;2022-07-30T01:59:12;102001.56;;;18.53;60.66
59116;BME280;53564;51.930;4.640;2022-07-30T02:01:40;101992.00;;;18.45;60.79
59116;BME280;53564;51.930;4.640;2022-07-30T02:04:05;101991.06;;;18.47;60.71
59116;BME280;53564;51.930;4.640;2022-07-30T02:06:36;101993.50;;;18.53;60.38
59116;BME280;53564;51.930;4.640;2022-07-30T02:09:04;101996.72;;;18.40;60.76
59116;BME280;53564;51.930;4.640;2022-07-30T02:11:31;101996.53;;;18.45;60.99
59116;BME280;53564;51.930;4.640;2022-07-30T02:14:21;101992.19;;;18.41;60.91
59116;BME280;53564;51.930;4.640;2022-07-30T02:16:50;102008.44;;;18.38;60.79
59116;BME280;53564;51.930;4.640;2022-07-30T02:19:18;102003.34;;;18.32;60.58
59116;BME280;53564;51.930;4.640;2022-07-30T02:21:46;102003.59;;;18.25;61.02
59116;BME280;53564;51.930;4.640;2022-07-30T02:24:16;102009.47;;;18.35;60.95
59116;BME280;53564;51.930;4.640;2022-07-30T02:26:44;102002.75;;;18.25;61.02
59116;BME280;53564;51.930;4.640;2022-07-30T02:29:14;101997.94;;;18.11;61.89
59116;BME280;53564;51.930;4.640;2022-07-30T02:31:40;101989.81;;;17.90;63.51
59116;BME280;53564;51.930;4.640;2022-07-30T02:34:07;102013.59;;;17.77;66.40
59116;BME280;53564;51.930;4.640;2022-07-30T02:36:34;102011.59;;;18.27;61.30
59116;BME280;53564;51.930;4.640;2022-07-30T02:39:01;102010.84;;;18.23;62.42
59116;BME280;53564;51.930;4.640;2022-07-30T02:41:30;102004.03;;;18.15;61.80
59116;BME280;53564;51.930;4.640;2022-07-30T02:43:56;102005.47;;;18.23;61.01
59116;BME280;53564;51.930;4.640;2022-07-30T02:46:23;101992.53;;;18.12;61.07
59116;BME280;53564;51.930;4.640;2022-07-30T02:48:49;101990.38;;;18.21;60.92
59116;BME280;53564;51.930;4.640;2022-07-30T02:51:17;101993.56;;;18.08;61.51
59116;BME280;53564;51.930;4.640;2022-07-30T02:53:45;101994.63;;;18.26;60.58
59116;BME280;53564;51.930;4.640;2022-07-30T02:56:12;101987.75;;;18.19;61.04
59116;BME280;53564;51.930;4.640;2022-07-30T02:58:41;101989.69;;;18.16;60.95
59116;BME280;53564;51.930;4.640;2022-07-30T03:01:08;101991.78;;;18.09;61.02
59116;BME280;53564;51.930;4.640;2022-07-30T03:03:34;101993.03;;;18.00;61.28
59116;BME280;53564;51.930;4.640;2022-07-30T03:06:00;101991.38;;;17.96;61.21
59116;BME280;53564;51.930;4.640;2022-07-30T03:08:28;101995.09;;;17.92;61.37
59116;BME280;53564;51.930;4.640;2022-07-30T03:10:55;101990.50;;;17.73;61.25
59116;BME280;53564;51.930;4.640;2022-07-30T03:13:22;102002.34;;;17.68;62.44
59116;BME280;53564;51.930;4.640;2022-07-30T03:15:49;102006.09;;;17.86;61.34
59116;BME280;53564;51.930;4.640;2022-07-30T03:18:16;101994.06;;;17.96;61.26
59116;BME280;53564;51.930;4.640;2022-07-30T03:20:45;101991.50;;;17.93;61.22
59116;BME280;53564;51.930;4.640;2022-07-30T03:23:13;101998.97;;;17.85;61.15
59116;BME280;53564;51.930;4.640;2022-07-30T03:25:41;102003.41;;;17.86;61.44
59116;BME280;53564;51.930;4.640;2022-07-30T03:28:09;101988.25;;;17.85;61.68
59116;BME280;53564;51.930;4.640;2022-07-30T03:30:36;101994.59;;;17.82;61.36
59116;BME280;53564;51.930;4.640;2022-07-30T03:33:01;102001.97;;;17.77;61.23
59116;BME280;53564;51.930;4.640;2022-07-30T03:35:27;102007.38;;;17.99;61.06
59116;BME280;53564;51.930;4.640;2022-07-30T03:37:54;101997.56;;;17.98;60.85
59116;BME280;53564;51.930;4.640;2022-07-30T03:40:20;102004.41;;;17.37;64.17
59116;BME280;53564;51.930;4.640;2022-07-30T03:42:46;101997.97;;;17.65;62.40
59116;BME280;53564;51.930;4.640;2022-07-30T03:45:12;101997.75;;;17.71;62.15
59116;BME280;53564;51.930;4.640;2022-07-30T03:47:39;102000.53;;;17.68;61.62
59116;BME280;53564;51.930;4.640;2022-07-30T03:50:06;102012.09;;;17.70;61.66
59116;BME280;53564;51.930;4.640;2022-07-30T03:52:37;102007.47;;;17.74;61.28
59116;BME280;53564;51.930;4.640;2022-07-30T03:55:06;102008.56;;;17.68;61.47
59116;BME280;53564;51.930;4.640;2022-07-30T03:57:31;102007.16;;;17.36;64.01
59116;BME280;53564;51.930;4.640;2022-07-30T03:59:57;102012.88;;;17.72;61.58
59116;BME280;53564;51.930;4.640;2022-07-30T04:02:22;102005.81;;;17.70;61.54
59116;BME280;53564;51.930;4.640;2022-07-30T04:04:48;102012.41;;;17.62;61.78
59116;BME280;53564;51.930;4.640;2022-07-30T04:07:13;102023.28;;;17.58;61.54
59116;BME280;53564;51.930;4.640;2022-07-30T04:09:38;102022.28;;;17.60;61.82
59116;BME280;53564;51.930;4.640;2022-07-30T04:12:04;102014.66;;;17.49;62.09
59116;BME280;53564;51.930;4.640;2022-07-30T04:14:43;102018.16;;;17.52;61.34
59116;BME280;53564;51.930;4.640;2022-07-30T04:17:19;102018.25;;;17.48;61.61
59116;BME280;53564;51.930;4.640;2022-07-30T04:19:52;102023.16;;;17.37;61.74
59116;BME280;53564;51.930;4.640;2022-07-30T04:22:22;102021.19;;;17.42;61.52
59116;BME280;53564;51.930;4.640;2022-07-30T04:24:49;102025.84;;;17.37;62.00
59116;BME280;53564;51.930;4.640;2022-07-30T04:27:16;102029.22;;;17.42;61.96
59116;BME280;53564;51.930;4.640;2022-07-30T04:29:41;102033.50;;;17.48;61.39
59116;BME280;53564;51.930;4.640;2022-07-30T04:32:07;102035.25;;;17.49;61.54
59116;BME280;53564;51.930;4.640;2022-07-30T04:34:34;102033.50;;;17.48;61.45
59116;BME280;53564;51.930;4.640;2022-07-30T04:36:59;102034.56;;;17.44;61.64
59116;BME280;53564;51.930;4.640;2022-07-30T04:39:24;102031.81;;;17.45;61.32
59116;BME280;53564;51.930;4.640;2022-07-30T04:41:49;102036.31;;;17.45;61.51
59116;BME280;53564;51.930;4.640;2022-07-30T04:44:18;102026.16;;;17.53;61.28
59116;BME280;53564;51.930;4.640;2022-07-30T04:46:44;102024.16;;;17.58;61.40
59116;BME280;53564;51.930;4.640;2022-07-30T04:49:11;102031.41;;;17.56;61.02
59116;BME280;53564;51.930;4.640;2022-07-30T04:51:38;102031.22;;;17.37;61.36
59116;BME280;53564;51.930;4.640;2022-07-30T04:54:06;102038.00;;;17.47;61.25
59116;BME280;53564;51.930;4.640;2022-07-30T04:56:33;102032.09;;;17.38;61.51
59116;BME280;53564;51.930;4.640;2022-07-30T04:59:00;102045.44;;;17.39;61.23
59116;BME280;53564;51.930;4.640;2022-07-30T05:01:30;102040.03;;;17.41;61.46
59116;BME280;53564;51.930;4.640;2022-07-30T05:03:57;102036.56;;;17.37;61.29
59116;BME280;53564;51.930;4.640;2022-07-30T05:06:24;102040.09;;;17.39;61.42
59116;BME280;53564;51.930;4.640;2022-07-30T05:08:50;102036.81;;;17.55;60.85
59116;BME280;53564;51.930;4.640;2022-07-30T05:11:15;102052.78;;;17.34;63.01
59116;BME280;53564;51.930;4.640;2022-07-30T05:13:42;102046.75;;;17.53;61.03
59116;BME280;53564;51.930;4.640;2022-07-30T05:16:08;102051.50;;;17.44;61.19
59116;BME280;53564;51.930;4.640;2022-07-30T05:18:34;102051.16;;;17.30;61.99
59116;BME280;53564;51.930;4.640;2022-07-30T05:20:59;102049.59;;;17.48;61.57
59116;BME280;53564;51.930;4.640;2022-07-30T05:23:24;102050.44;;;17.48;60.99
59116;BME280;53564;51.930;4.640;2022-07-30T05:25:50;102054.34;;;17.63;60.90
59116;BME280;53564;51.930;4.640;2022-07-30T05:28:15;102069.72;;;17.60;61.52
59116;BME280;53564;51.930;4.640;2022-07-30T05:30:40;102058.84;;;17.63;60.46
59116;BME280;53564;51.930;4.640;2022-07-30T05:33:06;102060.59;;;17.64;61.65
59116;BME280;53564;51.930;4.640;2022-07-30T05:35:31;102056.09;;;17.64;60.92
59116;BME280;53564;51.930;4.640;2022-07-30T05:37:58;102066.75;;;17.42;68.03
59116;BME280;53564;51.930;4.640;2022-07-30T05:40:23;102065.03;;;17.41;64.15
59116;BME280;53564;51.930;4.640;2022-07-30T05:42:48;102067.88;;;17.37;66.50
59116;BME280;53564;51.930;4.640;2022-07-30T05:45:14;102070.44;;;17.63;61.48
59116;BME280;53564;51.930;4.640;2022-07-30T05:47:39;102074.81;;;17.66;63.78
59116;BME280;53564;51.930;4.640;2022-07-30T05:50:05;102071.56;;;17.58;61.92
59116;BME280;53564;51.930;4.640;2022-07-30T05:52:30;102070.72;;;17.79;60.06
59116;BME280;53564;51.930;4.640;2022-07-30T05:54:55;102071.78;;;17.52;62.25
59116;BME280;53564;51.930;4.640;2022-07-30T05:57:20;102077.78;;;17.35;65.83
59116;BME280;53564;51.930;4.640;2022-07-30T05:59:46;102075.88;;;17.38;65.93
59116;BME280;53564;51.930;4.640;2022-07-30T06:02:11;102062.81;;;17.76;60.84
59116;BME280;53564;51.930;4.640;2022-07-30T06:04:36;102078.56;;;17.62;65.42
59116;BME280;53564;51.930;4.640;2022-07-30T06:07:02;102070.28;;;17.44;63.68
59116;BME280;53564;51.930;4.640;2022-07-30T06:09:27;102079.00;;;17.49;63.51
59116;BME280;53564;51.930;4.640;2022-07-30T06:11:52;102089.19;;;17.65;65.62
59116;BME280;53564;51.930;4.640;2022-07-30T06:14:18;102085.53;;;17.42;65.24
59116;BME280;53564;51.930;4.640;2022-07-30T06:16:43;102071.91;;;17.48;64.52
59116;BME280;53564;51.930;4.640;2022-07-30T06:19:08;102075.31;;;17.76;62.12
59116;BME280;53564;51.930;4.640;2022-07-30T06:21:34;102084.06;;;17.59;64.33
59116;BME280;53564;51.930;4.640;2022-07-30T06:23:59;102081.06;;;17.67;64.98
59116;BME280;53564;51.930;4.640;2022-07-30T06:26:24;102083.44;;;17.74;62.51
59116;BME280;53564;51.930;4.640;2022-07-30T06:28:50;102084.03;;;17.83;61.71
59116;BME280;53564;51.930;4.640;2022-07-30T06:31:15;102082.28;;;17.81;61.66
59116;BME280;53564;51.930;4.640;2022-07-30T06:33:40;102071.09;;;17.94;61.06
59116;BME280;53564;51.930;4.640;2022-07-30T06:36:07;102086.59;;;17.62;66.24
59116;BME280;53564;51.930;4.640;2022-07-30T06:38:32;102079.47;;;17.85;61.99
59116;BME280;53564;51.930;4.640;2022-07-30T06:40:57;102069.69;;;18.07;62.81
59116;BME280;53564;51.930;4.640;2022-07-30T06:43:22;102075.16;;;18.04;61.79
59116;BME280;53564;51.930;4.640;2022-07-30T06:45:48;102073.84;;;17.69;64.40
59116;BME280;53564;51.930;4.640;2022-07-30T06:48:13;102076.41;;;17.95;64.21
59116;BME280;53564;51.930;4.640;2022-07-30T06:50:39;102074.53;;;18.20;62.94
59116;BME280;53564;51.930;4.640;2022-07-30T06:53:05;102060.66;;;18.31;62.22
59116;BME280;53564;51.930;4.640;2022-07-30T06:55:31;102081.28;;;18.08;65.78
59116;BME280;53564;51.930;4.640;2022-07-30T06:57:56;102077.53;;;18.12;61.23
59116;BME280;53564;51.930;4.640;2022-07-30T07:00:21;102073.84;;;18.37;63.34
59116;BME280;53564;51.930;4.640;2022-07-30T07:02:46;102088.41;;;18.31;61.53
59116;BME280;53564;51.930;4.640;2022-07-30T07:05:12;102073.41;;;18.03;64.56
59116;BME280;53564;51.930;4.640;2022-07-30T07:07:37;102084.00;;;18.28;63.51
59116;BME280;53564;51.930;4.640;2022-07-30T07:10:04;102074.28;;;18.26;62.36
59116;BME280;53564;51.930;4.640;2022-07-30T07:12:30;102083.72;;;18.36;61.02
59116;BME280;53564;51.930;4.640;2022-07-30T07:14:55;102068.78;;;18.51;61.95
59116;BME280;53564;51.930;4.640;2022-07-30T07:17:20;102086.31;;;18.81;58.34
59116;BME280;53564;51.930;4.640;2022-07-30T07:19:45;102075.72;;;18.77;58.04
59116;BME280;53564;51.930;4.640;2022-07-30T07:22:11;102086.03;;;18.87;58.81
59116;BME280;53564;51.930;4.640;2022-07-30T07:24:36;102082.00;;;18.99;59.82
59116;BME280;53564;51.930;4.640;2022-07-30T07:27:01;102084.59;;;19.00;57.60
59116;BME280;53564;51.930;4.640;2022-07-30T07:29:26;102095.63;;;18.94;62.05
59116;BME280;53564;51.930;4.640;2022-07-30T07:31:52;102087.41;;;18.97;60.38
59116;BME280;53564;51.930;4.640;2022-07-30T07:34:18;102088.50;;;18.50;64.18
59116;BME280;53564;51.930;4.640;2022-07-30T07:36:43;102085.19;;;19.28;60.48
59116;BME280;53564;51.930;4.640;2022-07-30T07:39:09;102099.75;;;19.42;59.23
59116;BME280;53564;51.930;4.640;2022-07-30T07:41:37;102101.63;;;19.40;58.66
59116;BME280;53564;51.930;4.640;2022-07-30T07:44:04;102096.41;;;19.37;57.49
59116;BME280;53564;51.930;4.640;2022-07-30T07:46:29;102098.84;;;19.42;59.44
59116;BME280;53564;51.930;4.640;2022-07-30T07:48:55;102089.44;;;19.71;56.61
59116;BME280;53564;51.930;4.640;2022-07-30T07:51:20;102094.84;;;19.71;57.10
59116;BME280;53564;51.930;4.640;2022-07-30T07:53:45;102099.44;;;20.08;56.68
59116;BME280;53564;51.930;4.640;2022-07-30T07:56:11;102109.78;;;19.39;59.23
59116;BME280;53564;51.930;4.640;2022-07-30T07:58:36;102085.63;;;19.96;57.09
59116;BME280;53564;51.930;4.640;2022-07-30T08:01:01;102078.84;;;20.06;57.40
59116;BME280;53564;51.930;4.640;2022-07-30T08:03:26;102082.47;;;20.05;57.45
59116;BME280;53564;51.930;4.640;2022-07-30T08:05:52;102075.09;;;20.46;57.49
59116;BME280;53564;51.930;4.640;2022-07-30T08:08:17;102072.09;;;20.52;55.63
59116;BME280;53564;51.930;4.640;2022-07-30T08:10:42;102074.78;;;20.52;56.72
59116;BME280;53564;51.930;4.640;2022-07-30T08:13:07;102081.00;;;21.07;55.26
59116;BME280;53564;51.930;4.640;2022-07-30T08:15:33;102072.09;;;20.69;54.62
59116;BME280;53564;51.930;4.640;2022-07-30T08:17:58;102075.31;;;20.78;55.58
59116;BME280;53564;51.930;4.640;2022-07-30T08:20:24;102070.56;;;20.83;54.95
59116;BME280;53564;51.930;4.640;2022-07-30T08:22:49;102064.81;;;21.07;54.48
59116;BME280;53564;51.930;4.640;2022-07-30T08:25:15;102067.59;;;21.05;54.08
59116;BME280;53564;51.930;4.640;2022-07-30T08:27:43;102071.31;;;21.20;54.08
59116;BME280;53564;51.930;4.640;2022-07-30T08:30:09;102076.50;;;21.07;54.65
59116;BME280;53564;51.930;4.640;2022-07-30T08:32:35;102079.59;;;21.33;53.23
59116;BME280;53564;51.930;4.640;2022-07-30T08:35:01;102072.97;;;21.56;53.24
59116;BME280;53564;51.930;4.640;2022-07-30T08:37:26;102065.41;;;21.63;53.33
59116;BME280;53564;51.930;4.640;2022-07-30T08:39:51;102073.28;;;21.50;53.43
59116;BME280;53564;51.930;4.640;2022-07-30T08:42:17;102068.28;;;22.08;51.88
59116;BME280;53564;51.930;4.640;2022-07-30T08:44:44;102072.81;;;22.07;52.85
59116;BME280;53564;51.930;4.640;2022-07-30T08:47:15;102069.06;;;22.10;52.83
59116;BME280;53564;51.930;4.640;2022-07-30T08:49:41;102069.66;;;22.15;52.56
59116;BME280;53564;51.930;4.640;2022-07-30T08:52:08;102068.75;;;22.46;51.33
59116;BME280;53564;51.930;4.640;2022-07-30T08:54:34;102077.84;;;21.65;50.94
59116;BME280;53564;51.930;4.640;2022-07-30T08:57:00;102077.22;;;22.71;51.67
59116;BME280;53564;51.930;4.640;2022-07-30T08:59:25;102074.13;;;22.62;51.99
59116;BME280;53564;51.930;4.640;2022-07-30T09:01:51;102075.50;;;22.70;51.14
59116;BME280;53564;51.930;4.640;2022-07-30T09:04:17;102079.59;;;22.91;51.36
59116;BME280;53564;51.930;4.640;2022-07-30T09:06:43;102089.97;;;22.22;49.56
59116;BME280;53564;51.930;4.640;2022-07-30T09:09:08;102082.78;;;23.28;48.75
59116;BME280;53564;51.930;4.640;2022-07-30T09:11:34;102089.31;;;23.68;51.21
59116;BME280;53564;51.930;4.640;2022-07-30T09:14:11;102086.88;;;23.63;51.12
59116;BME280;53564;51.930;4.640;2022-07-30T09:16:37;102078.91;;;23.33;50.81
59116;BME280;53564;51.930;4.640;2022-07-30T09:19:15;102086.28;;;24.01;49.83
59116;BME280;53564;51.930;4.640;2022-07-30T09:21:41;102091.03;;;23.98;49.69
59116;BME280;53564;51.930;4.640;2022-07-30T09:24:11;102085.31;;;24.30;49.29
59116;BME280;53564;51.930;4.640;2022-07-30T09:26:57;102081.91;;;24.13;48.07
59116;BME280;53564;51.930;4.640;2022-07-30T09:29:31;102074.88;;;24.64;46.49
59116;BME280;53564;51.930;4.640;2022-07-30T09:32:03;102085.59;;;22.82;48.62
59116;BME280;53564;51.930;4.640;2022-07-30T09:34:31;102083.50;;;24.43;47.46
59116;BME280;53564;51.930;4.640;2022-07-30T09:37:02;102065.25;;;24.60;46.05
59116;BME280;53564;51.930;4.640;2022-07-30T09:39:35;102072.31;;;24.35;47.07
59116;BME280;53564;51.930;4.640;2022-07-30T09:42:03;102070.19;;;24.93;47.30
59116;BME280;53564;51.930;4.640;2022-07-30T09:44:29;102068.44;;;24.52;46.13
59116;BME280;53564;51.930;4.640;2022-07-30T09:46:57;102077.44;;;24.12;47.67
59116;BME280;53564;51.930;4.640;2022-07-30T09:49:25;102073.44;;;25.11;45.63
59116;BME280;53564;51.930;4.640;2022-07-30T09:51:51;102066.81;;;25.28;44.04
59116;BME280;53564;51.930;4.640;2022-07-30T09:54:17;102065.97;;;25.15;45.37
59116;BME280;53564;51.930;4.640;2022-07-30T09:56:43;102070.31;;;22.95;45.43
59116;BME280;53564;51.930;4.640;2022-07-30T09:59:27;102062.25;;;24.90;47.04
59116;BME280;53564;51.930;4.640;2022-07-30T10:01:54;102058.69;;;24.49;46.77
59116;BME280;53564;51.930;4.640;2022-07-30T10:06:49;102067.69;;;25.54;42.07
59116;BME280;53564;51.930;4.640;2022-07-30T10:09:27;102070.94;;;25.60;44.94
59116;BME280;53564;51.930;4.640;2022-07-30T10:11:57;102060.22;;;26.19;45.79
59116;BME280;53564;51.930;4.640;2022-07-30T10:14:28;102061.41;;;26.75;44.77
59116;BME280;53564;51.930;4.640;2022-07-30T10:16:57;102063.75;;;23.86;44.59
59116;BME280;53564;51.930;4.640;2022-07-30T10:19:23;102064.50;;;26.11;45.38
59116;BME280;53564;51.930;4.640;2022-07-30T10:21:49;102076.00;;;26.14;42.19
59116;BME280;53564;51.930;4.640;2022-07-30T10:24:18;102067.34;;;26.80;41.71
59116;BME280;53564;51.930;4.640;2022-07-30T10:26:45;102072.22;;;26.88;41.13
59116;BME280;53564;51.930;4.640;2022-07-30T10:29:11;102075.59;;;27.14;43.62
59116;BME280;53564;51.930;4.640;2022-07-30T10:31:39;102076.53;;;26.91;42.95
59116;BME280;53564;51.930;4.640;2022-07-30T10:34:05;102077.28;;;26.33;43.96
59116;BME280;53564;51.930;4.640;2022-07-30T10:36:32;102067.88;;;25.51;40.87
59116;BME280;53564;51.930;4.640;2022-07-30T10:38:59;102051.09;;;27.03;40.03
59116;BME280;53564;51.930;4.640;2022-07-30T10:41:51;102070.16;;;27.37;40.30
59116;BME280;53564;51.930;4.640;2022-07-30T10:47:13;102064.47;;;27.63;41.43
59116;BME280;53564;51.930;4.640;2022-07-30T10:49:40;102052.06;;;27.13;43.17
59116;BME280;53564;51.930;4.640;2022-07-30T10:52:05;102067.25;;;26.22;39.19
59116;BME280;53564;51.930;4.640;2022-07-30T10:54:40;102064.72;;;27.48;40.48
59116;BME280;53564;51.930;4.640;2022-07-30T11:02:13;102056.53;;;25.83;40.80
59116;BME280;53564;51.930;4.640;2022-07-30T11:04:38;102045.59;;;26.80;42.26
59116;BME280;53564;51.930;4.640;2022-07-30T11:09:52;102051.81;;;27.73;37.84
59116;BME280;53564;51.930;4.640;2022-07-30T11:12:58;102054.78;;;27.25;39.55
59116;BME280;53564;51.930;4.640;2022-07-30T11:15:22;102053.06;;;27.24;40.26
59116;BME280;53564;51.930;4.640;2022-07-30T11:18:05;102063.97;;;27.58;41.18
59116;BME280;53564;51.930;4.640;2022-07-30T11:20:33;102045.13;;;28.21;40.85
59116;BME280;53564;51.930;4.640;2022-07-30T11:23:34;102051.31;;;27.79;42.82
59116;BME280;53564;51.930;4.640;2022-07-30T11:26:00;102058.16;;;26.70;42.63
59116;BME280;53564;51.930;4.640;2022-07-30T11:30:58;102056.44;;;26.09;43.27
59116;BME280;53564;51.930;4.640;2022-07-30T11:33:23;102048.22;;;27.05;43.23
59116;BME280;53564;51.930;4.640;2022-07-30T11:36:09;102054.03;;;27.23;43.10
59116;BME280;53564;51.930;4.640;2022-07-30T11:38:55;102057.53;;;26.31;44.46
59116;BME280;53564;51.930;4.640;2022-07-30T11:41:20;102057.41;;;27.49;40.86
59116;BME280;53564;51.930;4.640;2022-07-30T11:43:46;102053.06;;;27.01;41.98
59116;BME280;53564;51.930;4.640;2022-07-30T11:46:14;102048.97;;;27.75;41.72
59116;BME280;53564;51.930;4.640;2022-07-30T11:48:54;102054.88;;;25.31;39.74
59116;BME280;53564;51.930;4.640;2022-07-30T11:51:23;102047.91;;;25.27;41.16
59116;BME280;53564;51.930;4.640;2022-07-30T11:54:02;102040.13;;;26.09;41.14
59116;BME280;53564;51.930;4.640;2022-07-30T11:56:28;102044.53;;;26.70;40.59
59116;BME280;53564;51.930;4.640;2022-07-30T11:59:01;102026.00;;;27.89;42.03
59116;BME280;53564;51.930;4.640;2022-07-30T12:01:26;102043.78;;;28.48;40.44
59116;BME280;53564;51.930;4.640;2022-07-30T12:03:52;102038.75;;;27.44;43.28
59116;BME280;53564;51.930;4.640;2022-07-30T12:06:17;102041.91;;;27.72;41.17
59116;BME280;53564;51.930;4.640;2022-07-30T12:08:51;102053.53;;;27.86;39.60
59116;BME280;53564;51.930;4.640;2022-07-30T12:11:17;102048.34;;;27.37;42.51
59116;BME280;53564;51.930;4.640;2022-07-30T12:13:43;102040.00;;;28.82;39.72
59116;BME280;53564;51.930;4.640;2022-07-30T12:16:10;102044.88;;;28.24;38.51
59116;BME280;53564;51.930;4.640;2022-07-30T12:18:36;102055.53;;;29.33;39.39
59116;BME280;53564;51.930;4.640;2022-07-30T12:21:05;102046.72;;;28.77;39.96
59116;BME280;53564;51.930;4.640;2022-07-30T12:23:32;102046.88;;;28.43;41.73
59116;BME280;53564;51.930;4.640;2022-07-30T12:25:58;102043.66;;;26.58;41.68
59116;BME280;53564;51.930;4.640;2022-07-30T12:28:29;102043.84;;;27.93;37.33
59116;BME280;53564;51.930;4.640;2022-07-30T12:30:55;102047.19;;;28.08;38.23
59116;BME280;53564;51.930;4.640;2022-07-30T12:33:22;102053.56;;;27.18;41.07
59116;BME280;53564;51.930;4.640;2022-07-30T12:35:50;102041.06;;;27.72;38.78
59116;BME280;53564;51.930;4.640;2022-07-30T12:38:17;102043.16;;;27.34;42.79
59116;BME280;53564;51.930;4.640;2022-07-30T12:40:59;102034.59;;;28.49;40.89
59116;BME280;53564;51.930;4.640;2022-07-30T12:46:21;102035.72;;;29.51;39.70
59116;BME280;53564;51.930;4.640;2022-07-30T12:49:07;102044.88;;;26.90;42.13
59116;BME280;53564;51.930;4.640;2022-07-30T12:51:35;102040.66;;;26.86;41.12
59116;BME280;53564;51.930;4.640;2022-07-30T12:54:14;102026.34;;;28.60;36.58
59116;BME280;53564;51.930;4.640;2022-07-30T12:56:57;102033.72;;;28.91;37.72
59116;BME280;53564;51.930;4.640;2022-07-30T12:59:23;102038.75;;;27.44;36.48
59116;BME280;53564;51.930;4.640;2022-07-30T13:01:50;102036.66;;;28.99;40.49
59116;BME280;53564;51.930;4.640;2022-07-30T13:04:16;102033.91;;;25.83;38.02
59116;BME280;53564;51.930;4.640;2022-07-30T13:06:42;102034.41;;;26.61;37.97
59116;BME280;53564;51.930;4.640;2022-07-30T13:09:18;102016.31;;;27.96;40.55
59116;BME280;53564;51.930;4.640;2022-07-30T13:11:44;102019.97;;;29.74;36.70